Terminal Aerodrome Forecast
Issued by NWS Tallahassee, FL

Home | Current Version | Previous Version | Text Only | Print | Product List | Glossary On
Versions: 1 2 3 4 5 6 7 8 9 10 11 12 13 14 15
693
FTUS42 KTAE 020529
TAFTLH
TAF
KTLH 020529Z 0206/0306 00000KT P6SM SCT250
     FM020900 11003KT 4SM BR FEW250
     FM021000 VRB02KT 1SM BR SCT025
     FM021300 18008KT P6SM SCT025 BKN050
     FM030300 24002KT P6SM OVC025=

USA.gov is the U.S. government's official web portal to all federal, state and local government web resources and services.